createdAt,value
2023-03-14T00:01:52.537Z,100.00
2023-03-14T00:06:54.441Z,100.00
2023-03-14T00:11:57.642Z,100.00
2023-03-14T00:16:59.622Z,100.00
2023-03-14T00:22:01.555Z,100.00
2023-03-14T00:27:03.559Z,100.00
2023-03-14T00:32:05.427Z,100.00
2023-03-14T00:37:07.518Z,100.00
2023-03-14T00:42:09.714Z,100.00
2023-03-14T00:47:11.614Z,100.00
2023-03-14T00:52:13.496Z,100.00
2023-03-14T00:57:15.444Z,100.00
2023-03-14T01:02:17.609Z,100.00
2023-03-14T01:07:19.587Z,100.00
2023-03-14T01:12:21.590Z,100.00
2023-03-14T01:17:23.724Z,100.00
2023-03-14T01:22:25.705Z,100.00
2023-03-14T01:27:28.093Z,100.00
2023-03-14T01:32:30.521Z,100.00
2023-03-14T01:37:32.553Z,100.00
2023-03-14T01:42:34.506Z,100.00
2023-03-14T01:47:36.423Z,100.00
2023-03-14T01:52:53.232Z,100.00
2023-03-14T01:58:03.878Z,100.00
2023-03-14T02:03:12.222Z,100.00
2023-03-14T02:08:25.302Z,100.00
2023-03-14T02:13:27.740Z,100.00
2023-03-14T02:18:29.765Z,100.00
2023-03-14T02:24:07.914Z,100.00
2023-03-14T02:29:10.959Z,100.00
2023-03-14T02:34:13.613Z,100.00
2023-03-14T02:39:25.656Z,100.00
2023-03-14T02:44:28.172Z,100.00
2023-03-14T02:49:34.006Z,100.00
2023-03-14T02:54:36.045Z,100.00
2023-03-14T02:59:38.098Z,100.00
2023-03-14T03:04:40.100Z,100.00
2023-03-14T03:09:42.103Z,100.00
2023-03-14T03:14:43.996Z,100.00
2023-03-14T03:19:45.915Z,100.00
2023-03-14T03:24:49.389Z,100.00
2023-03-14T03:29:51.406Z,99.99
2023-03-14T03:34:53.712Z,100.00
2023-03-14T03:39:55.743Z,100.00
2023-03-14T03:44:57.666Z,99.70
2023-03-14T03:49:59.636Z,99.67
2023-03-14T03:55:01.636Z,99.76
2023-03-14T04:00:06.437Z,99.94
2023-03-14T04:05:08.989Z,99.76
2023-03-14T04:10:12.504Z,99.59
2023-03-14T04:15:14.497Z,99.11
2023-03-14T04:20:16.555Z,98.71
2023-03-14T04:25:20.547Z,98.39
2023-03-14T04:30:22.707Z,98.77
2023-03-14T04:35:24.721Z,99.74
2023-03-14T04:40:26.984Z,100.00
2023-03-14T04:45:28.971Z,100.00
2023-03-14T04:50:30.930Z,100.00
2023-03-14T04:55:33.860Z,100.00
2023-03-14T05:00:37.163Z,100.00
2023-03-14T05:05:40.182Z,100.00
2023-03-14T05:10:42.360Z,100.00
2023-03-14T05:15:44.328Z,100.00
2023-03-14T05:20:46.373Z,100.00
2023-03-14T05:25:48.359Z,100.00
2023-03-14T05:30:50.451Z,100.00
2023-03-14T05:35:52.509Z,100.00
2023-03-14T05:40:54.467Z,100.00
2023-03-14T05:45:57.091Z,100.00
2023-03-14T05:50:59.989Z,100.00
2023-03-14T05:56:05.421Z,100.00
2023-03-14T06:01:08.017Z,100.00
2023-03-14T06:06:10.117Z,100.00
2023-03-14T06:11:15.080Z,100.00
2023-03-14T06:16:17.086Z,100.00
2023-03-14T06:21:20.220Z,100.00
2023-03-14T06:26:23.698Z,100.00
2023-03-14T06:31:25.779Z,100.00
2023-03-14T06:36:27.922Z,100.00
2023-03-14T06:41:33.447Z,100.00
2023-03-14T06:46:35.733Z,100.00
2023-03-14T06:51:37.851Z,100.00
2023-03-14T06:56:40.258Z,100.00
2023-03-14T07:01:42.612Z,99.96
2023-03-14T07:06:48.092Z,100.00
2023-03-14T07:11:51.025Z,100.00
2023-03-14T07:16:54.069Z,99.46
2023-03-14T07:21:56.195Z,96.94
2023-03-14T07:26:58.282Z,93.57
2023-03-14T07:32:00.229Z,91.38
2023-03-14T07:37:08.652Z,90.27
2023-03-14T07:42:11.772Z,89.29
2023-03-14T07:47:14.192Z,87.42
2023-03-14T07:52:17.135Z,87.90
2023-03-14T07:57:20.004Z,87.51
2023-03-14T08:02:24.764Z,85.78
2023-03-14T08:07:26.995Z,84.83
2023-03-14T08:12:29.267Z,84.22
2023-03-14T08:17:31.593Z,84.08
2023-03-14T08:22:33.791Z,84.12
2023-03-14T08:27:38.351Z,82.78
2023-03-14T08:32:40.964Z,83.29
2023-03-14T08:37:44.023Z,81.45
2023-03-14T08:42:51.550Z,79.93
2023-03-14T08:47:53.745Z,77.58
2023-03-14T08:52:58.405Z,77.07
2023-03-14T08:58:00.611Z,76.90
2023-03-14T09:03:04.281Z,76.33
2023-03-14T09:08:06.909Z,76.00
2023-03-14T09:13:09.147Z,76.48
2023-03-14T09:18:14.217Z,77.05
2023-03-14T09:23:16.699Z,77.92
2023-03-14T09:28:18.769Z,77.17
2023-03-14T09:33:21.370Z,76.56
2023-03-14T09:38:24.183Z,75.95
2023-03-14T09:43:29.435Z,75.45
2023-03-14T09:48:34.688Z,74.39
2023-03-14T09:53:45.923Z,75.38
2023-03-14T09:58:57.333Z,75.85
2023-03-14T10:04:07.973Z,75.95
2023-03-14T10:09:26.564Z,76.14
2023-03-14T10:14:31.589Z,76.19
2023-03-14T10:19:36.336Z,76.00
2023-03-14T10:25:02.223Z,76.07
2023-03-14T10:30:27.220Z,75.77
2023-03-14T10:35:35.101Z,76.72
2023-03-14T10:40:40.868Z,77.46
2023-03-14T10:45:46.627Z,77.84
2023-03-14T10:50:56.524Z,78.73
2023-03-14T10:56:03.559Z,79.25
2023-03-14T11:01:38.268Z,79.08
2023-03-14T11:06:48.042Z,78.85
2023-03-14T11:11:50.450Z,79.07
2023-03-14T11:17:36.572Z,79.95
2023-03-14T11:22:49.445Z,79.83
2023-03-14T11:28:10.821Z,80.20
2023-03-14T11:33:18.397Z,80.64
2023-03-14T11:38:36.438Z,80.62
2023-03-14T11:43:43.391Z,78.76
2023-03-14T11:49:30.113Z,78.33
2023-03-14T11:54:43.433Z,77.72
2023-03-14T12:00:20.140Z,77.63
2023-03-14T12:05:50.352Z,78.62
2023-03-14T12:10:56.373Z,78.94
2023-03-14T12:16:01.529Z,79.56
2023-03-14T12:21:09.476Z,80.50
2023-03-14T12:26:17.088Z,80.92
2023-03-14T12:31:31.665Z,81.90
2023-03-14T12:36:50.709Z,82.88
2023-03-14T12:42:02.128Z,83.71
2023-03-14T12:47:19.510Z,84.44
2023-03-14T12:52:47.171Z,84.91
2023-03-14T12:58:04.529Z,85.36
2023-03-14T13:03:25.711Z,85.73
2023-03-14T13:08:57.182Z,86.08
2023-03-14T13:14:00.118Z,86.61
2023-03-14T13:19:12.372Z,87.19
2023-03-14T13:24:27.003Z,87.06
2023-03-14T13:29:33.855Z,86.50
2023-03-14T13:34:36.057Z,85.92
2023-03-14T13:39:45.132Z,85.36
2023-03-14T13:44:47.767Z,85.40
2023-03-14T13:49:51.808Z,85.28
2023-03-14T13:55:20.368Z,85.30
2023-03-14T14:00:28.237Z,85.73
2023-03-14T14:05:34.756Z,85.84
2023-03-14T14:10:39.155Z,85.42
2023-03-14T14:15:45.921Z,85.04
2023-03-14T14:20:48.952Z,84.55
2023-03-14T14:25:51.521Z,84.16
2023-03-14T14:31:02.011Z,83.03
2023-03-14T14:36:05.366Z,82.22
2023-03-14T14:41:13.447Z,82.34
2023-03-14T14:46:19.603Z,82.29
2023-03-14T14:51:28.283Z,82.09
2023-03-14T14:56:30.993Z,81.82
2023-03-14T15:01:41.534Z,81.53
2023-03-14T15:06:50.998Z,82.19
2023-03-14T15:12:07.615Z,83.29
2023-03-14T15:17:15.196Z,84.34
2023-03-14T15:22:17.199Z,85.14
2023-03-14T15:27:19.763Z,85.88
2023-03-14T15:32:22.152Z,86.62
2023-03-14T15:37:30.084Z,87.27
2023-03-14T15:42:32.179Z,87.75
2023-03-14T15:47:34.532Z,88.16
2023-03-14T15:52:36.935Z,88.54
2023-03-14T15:57:39.030Z,88.90
2023-03-14T16:02:42.246Z,89.42
2023-03-14T16:07:44.542Z,89.53
2023-03-14T16:12:46.690Z,89.75
2023-03-14T16:17:53.600Z,90.04
2023-03-14T16:22:56.195Z,90.24
2023-03-14T16:28:10.418Z,90.75
2023-03-14T16:33:20.555Z,91.18
2023-03-14T16:38:24.683Z,91.37
2023-03-14T16:43:27.804Z,91.72
2023-03-14T16:48:30.056Z,91.73
2023-03-14T16:53:32.616Z,91.82
2023-03-14T16:58:35.683Z,92.17
2023-03-14T17:03:48.968Z,92.37
2023-03-14T17:08:53.119Z,92.42
2023-03-14T17:13:55.866Z,92.75
2023-03-14T17:18:58.581Z,92.73
2023-03-14T17:24:01.766Z,92.91
2023-03-14T17:29:04.036Z,92.92
2023-03-14T17:34:06.103Z,93.14
2023-03-14T17:39:11.724Z,93.56
2023-03-14T17:44:13.831Z,93.92
2023-03-14T17:49:15.929Z,94.33
2023-03-14T17:54:17.845Z,94.29
2023-03-14T17:59:20.295Z,94.58
2023-03-14T18:04:22.636Z,94.90
2023-03-14T18:09:25.027Z,95.84
2023-03-14T18:14:28.072Z,96.58
2023-03-14T18:19:30.465Z,97.25
2023-03-14T18:24:32.714Z,97.52
2023-03-14T18:29:36.471Z,98.06
2023-03-14T18:34:38.722Z,98.57
2023-03-14T18:39:42.157Z,99.45
2023-03-14T18:44:44.321Z,99.77
2023-03-14T18:49:46.534Z,99.83
2023-03-14T18:54:48.638Z,100.00
2023-03-14T18:59:52.615Z,100.00
2023-03-14T19:04:54.807Z,100.00
2023-03-14T19:09:56.775Z,100.00
2023-03-14T19:15:02.960Z,100.00
2023-03-14T19:20:05.784Z,100.00
2023-03-14T19:25:09.726Z,100.00
2023-03-14T19:30:11.971Z,100.00
2023-03-14T19:35:14.668Z,100.00
2023-03-14T19:40:17.057Z,100.00
2023-03-14T19:45:19.079Z,100.00
2023-03-14T19:50:21.036Z,100.00
2023-03-14T19:55:27.699Z,100.00
2023-03-14T20:00:29.886Z,100.00
2023-03-14T20:05:34.877Z,100.00
2023-03-14T20:10:38.794Z,100.00
2023-03-14T20:15:41.731Z,100.00
2023-03-14T20:20:44.225Z,100.00
2023-03-14T20:25:57.255Z,100.00
2023-03-14T20:30:59.705Z,100.00
2023-03-14T20:36:02.398Z,100.00
2023-03-14T20:41:07.424Z,100.00
2023-03-14T20:46:13.926Z,100.00
2023-03-14T20:51:15.977Z,100.00
2023-03-14T20:56:19.058Z,100.00
2023-03-14T21:06:43.137Z,100.00
2023-03-14T21:11:47.074Z,100.00
2023-03-14T21:16:50.609Z,100.00
2023-03-14T21:21:53.393Z,100.00
2023-03-14T21:26:57.886Z,100.00
2023-03-14T21:32:04.280Z,100.00
2023-03-14T21:37:09.416Z,100.00
2023-03-14T21:42:11.666Z,100.00
2023-03-14T21:47:15.451Z,100.00
2023-03-14T21:52:18.234Z,100.00
2023-03-14T21:57:20.262Z,99.48
2023-03-14T22:02:22.352Z,92.54
2023-03-14T22:07:24.753Z,97.43
2023-03-14T22:12:26.625Z,100.00
2023-03-14T22:17:29.163Z,100.00
2023-03-14T22:22:31.955Z,-1.00
2023-03-14T22:27:33.863Z,-1.00
2023-03-14T22:32:36.940Z,-1.00
2023-03-14T22:37:41.390Z,-1.00
2023-03-14T22:42:45.533Z,-1.00
2023-03-14T22:47:47.522Z,-1.00
2023-03-14T22:52:50.085Z,-1.00
2023-03-14T22:57:53.259Z,-1.00
2023-03-14T23:02:55.259Z,-1.00
2023-03-14T23:07:57.766Z,-1.00
2023-03-14T23:13:00.449Z,-1.00
2023-03-14T23:18:02.540Z,-1.00
2023-03-14T23:23:07.965Z,-1.00
2023-03-14T23:28:09.897Z,-1.00
2023-03-14T23:33:12.051Z,-1.00
2023-03-14T23:38:14.219Z,-1.00
2023-03-14T23:43:16.821Z,-1.00
2023-03-14T23:48:25.390Z,-1.00
2023-03-14T23:53:28.839Z,-1.00
2023-03-14T23:58:35.296Z,-1.00
